Time;durP1;ratioP1;P1;durP2;ratioP2;P2;SDS_P1;SDS_P2;PMS_P1;PMS_P2;Temp;Humidity;BMP_temperature;BMP_pressure;BME280_temperature;BME280_humidity;BME280_pressure;Samples;Min_cycle;Max_cycle;Signal;HPM_P1;HPM_P2
2023/05/01 00:00:14;;;;;;;0.75;0.63;;;;;;;;;;1027441;28;20434;-74
2023/05/01 00:00:46;;;;;;;1.65;1.00;;;;;;;;;;1027096;28;20031;-73
2023/05/01 00:01:16;;;;;;;0.93;0.80;;;;;;;;;;1027373;28;20090;-74
2023/05/01 00:01:47;;;;;;;0.55;0.35;;;;;;;;;;1023101;29;20506;-73
2023/05/01 00:02:17;;;;;;;5.72;1.75;;;;;;;;;;1022537;29;20202;-73
2023/05/01 00:02:48;;;;;;;0.45;0.30;;;;;;;;;;1023199;29;20030;-73
2023/05/01 00:03:18;;;;;;;1.52;0.70;;;;;;;;;;1023454;28;20082;-73
2023/05/01 00:03:49;;;;;;;1.77;0.57;;;;;;;;;;1023059;29;20019;-74
2023/05/01 00:04:21;;;;;;;1.30;1.17;;;;;;;;;;1023343;29;20814;-73
2023/05/01 00:04:51;;;;;;;0.30;0.30;;;;;;;;;;1023228;29;20479;-73
2023/05/01 00:05:22;;;;;;;1.70;0.82;;;;;;;;;;1023656;28;20064;-73
2023/05/01 00:05:58;;;;;;;1.85;0.90;;;;;;;;;;1027415;28;20035;-74
2023/05/01 00:06:29;;;;;;;0.93;0.85;;;;;;;;;;1026792;28;20181;-74
2023/05/01 00:06:59;;;;;;;0.10;0.10;;;;;;;;;;1025346;28;20085;-74
2023/05/01 00:07:30;;;;;;;1.35;1.23;;;;;;;;;;1025125;28;20066;-74
2023/05/01 00:08:00;;;;;;;1.67;0.93;;;;;;;;;;1024827;28;20023;-74
2023/05/01 00:08:31;;;;;;;1.05;1.02;;;;;;;;;;1024141;28;20124;-74
2023/05/01 00:09:01;;;;;;;1.02;0.80;;;;;;;;;;1027483;28;20030;-73
2023/05/01 00:09:32;;;;;;;0.70;0.28;;;;;;;;;;1027683;28;20069;-73
2023/05/01 00:10:02;;;;;;;1.77;1.02;;;;;;;;;;1027427;28;20062;-73
2023/05/01 00:10:34;;;;;;;3.60;0.95;;;;;;;;;;1027391;28;20050;-73
2023/05/01 00:11:08;;;;;;;0.73;0.63;;;;;;;;;;1027632;28;20386;-73
2023/05/01 00:11:39;;;;;;;1.45;1.33;;;;;;;;;;1028602;28;20110;-74
2023/05/01 00:12:10;;;;;;;0.50;0.50;;;;;;;;;;1023129;29;20027;-74
2023/05/01 00:12:40;;;;;;;0.28;0.28;;;;;;;;;;1023204;29;20019;-73
2023/05/01 00:13:11;;;;;;;0.20;0.20;;;;;;;;;;1023227;29;20388;-73
2023/05/01 00:13:42;;;;;;;13.25;1.38;;;;;;;;;;1023608;28;20110;-73
2023/05/01 00:14:12;;;;;;;5.30;0.93;;;;;;;;;;1027333;28;20494;-73
2023/05/01 00:14:42;;;;;;;3.00;0.90;;;;;;;;;;1027463;28;20019;-74
2023/05/01 00:15:13;;;;;;;1.35;1.05;;;;;;;;;;1028209;28;20027;-74
2023/05/01 00:15:43;;;;;;;2.22;0.85;;;;;;;;;;1028127;28;20026;-73
2023/05/01 00:16:15;;;;;;;1.40;1.05;;;;;;;;;;1027999;28;20030;-74
2023/05/01 00:16:46;;;;;;;0.55;0.55;;;;;;;;;;1027917;28;20470;-74
2023/05/01 00:17:17;;;;;;;1.77;0.93;;;;;;;;;;1028162;28;20030;-74
2023/05/01 00:17:47;;;;;;;0.45;0.45;;;;;;;;;;1027972;28;20442;-74
2023/05/01 00:18:18;;;;;;;1.15;0.68;;;;;;;;;;1026203;28;20054;-73
2023/05/01 00:18:48;;;;;;;0.70;0.30;;;;;;;;;;1024784;28;20121;-73
2023/05/01 00:19:19;;;;;;;1.20;1.10;;;;;;;;;;1025733;28;20074;-73
2023/05/01 00:19:53;;;;;;;1.15;0.93;;;;;;;;;;1023783;29;20033;-73
2023/05/01 00:20:27;;;;;;;0.38;0.30;;;;;;;;;;1025330;28;20069;-73
2023/05/01 00:20:57;;;;;;;0.63;0.45;;;;;;;;;;1024991;28;20022;-73
2023/05/01 00:21:28;;;;;;;0.57;0.52;;;;;;;;;;1024174;28;20035;-74
2023/05/01 00:21:58;;;;;;;21.13;0.95;;;;;;;;;;1025933;28;20027;-74
2023/05/01 00:22:29;;;;;;;0.90;0.90;;;;;;;;;;1023979;29;20049;-74
2023/05/01 00:22:59;;;;;;;1.80;0.77;;;;;;;;;;1023975;28;20027;-73
2023/05/01 00:23:30;;;;;;;1.20;0.93;;;;;;;;;;1028098;28;20041;-75
2023/05/01 00:24:00;;;;;;;0.45;0.40;;;;;;;;;;1027984;28;20026;-73
2023/05/01 00:24:31;;;;;;;1.95;1.40;;;;;;;;;;1027083;28;20034;-74
2023/05/01 00:25:01;;;;;;;1.42;0.98;;;;;;;;;;1028117;28;20483;-73
2023/05/01 00:25:32;;;;;;;1.45;1.05;;;;;;;;;;1028400;28;20109;-73
2023/05/01 00:26:02;;;;;;;1.27;0.95;;;;;;;;;;1028254;28;20105;-74
2023/05/01 00:26:32;;;;;;;1.58;1.00;;;;;;;;;;1028270;28;20459;-74
2023/05/01 00:27:03;;;;;;;4.45;1.15;;;;;;;;;;1027780;28;20030;-74
2023/05/01 00:27:33;;;;;;;5.20;1.60;;;;;;;;;;1028125;28;20109;-74
2023/05/01 00:28:05;;;;;;;1.00;0.50;;;;;;;;;;1023846;29;20065;-74
2023/05/01 00:28:35;;;;;;;0.85;0.85;;;;;;;;;;1023999;29;20035;-73
2023/05/01 00:29:06;;;;;;;0.55;0.55;;;;;;;;;;1023788;29;20062;-74
2023/05/01 00:29:36;;;;;;;3.25;1.52;;;;;;;;;;1024346;28;20122;-73
2023/05/01 00:30:07;;;;;;;2.35;1.35;;;;;;;;;;1027935;28;20062;-73
2023/05/01 00:30:39;;;;;;;2.20;1.38;;;;;;;;;;1027911;28;20521;-73
2023/05/01 00:31:09;;;;;;;1.42;0.65;;;;;;;;;;1028150;28;20058;-73
2023/05/01 00:31:44;;;;;;;10.65;1.77;;;;;;;;;;1028384;28;20019;-74
2023/05/01 00:32:14;;;;;;;2.00;0.65;;;;;;;;;;1028853;28;20026;-75
2023/05/01 00:32:45;;;;;;;2.00;0.88;;;;;;;;;;1026871;28;20415;-74
2023/05/01 00:33:15;;;;;;;0.77;0.73;;;;;;;;;;1028184;28;20034;-74
2023/05/01 00:33:46;;;;;;;0.68;0.68;;;;;;;;;;1026750;28;20031;-74
2023/05/01 00:34:16;;;;;;;0.88;0.68;;;;;;;;;;1026160;28;20022;-73
2023/05/01 00:34:47;;;;;;;0.77;0.63;;;;;;;;;;1026332;28;20035;-73
2023/05/01 00:35:17;;;;;;;1.20;0.80;;;;;;;;;;1026231;28;20086;-73
2023/05/01 00:35:48;;;;;;;1.13;1.02;;;;;;;;;;1026121;28;20027;-73
2023/05/01 00:36:18;;;;;;;1.83;0.80;;;;;;;;;;1028361;28;20398;-74
2023/05/01 00:36:49;;;;;;;5.68;1.30;;;;;;;;;;1028220;28;20022;-73
2023/05/01 00:37:19;;;;;;;1.92;0.88;;;;;;;;;;1028247;28;20041;-73
2023/05/01 00:37:50;;;;;;;1.35;1.10;;;;;;;;;;1028412;28;20364;-73
2023/05/01 00:38:22;;;;;;;1.35;1.23;;;;;;;;;;1028452;28;20114;-73
2023/05/01 00:38:53;;;;;;;2.45;1.45;;;;;;;;;;1023218;28;20149;-73
2023/05/01 00:39:23;;;;;;;0.73;0.68;;;;;;;;;;1023685;28;20537;-73
2023/05/01 00:39:54;;;;;;;1.23;1.08;;;;;;;;;;1023855;29;20063;-73
2023/05/01 00:40:25;;;;;;;2.58;1.70;;;;;;;;;;1024072;28;20060;-73
2023/05/01 00:40:56;;;;;;;0.38;0.38;;;;;;;;;;1027665;28;20027;-73
2023/05/01 00:41:26;;;;;;;0.93;0.50;;;;;;;;;;1028481;28;20050;-73
2023/05/01 00:41:57;;;;;;;0.68;0.68;;;;;;;;;;1028055;28;20073;-73
2023/05/01 00:42:32;;;;;;;0.65;0.65;;;;;;;;;;1026101;28;20030;-73
2023/05/01 00:43:03;;;;;;;2.20;0.90;;;;;;;;;;1023809;29;20019;-73
2023/05/01 00:43:34;;;;;;;0.30;0.30;;;;;;;;;;1024056;29;20388;-73
2023/05/01 00:44:04;;;;;;;1.48;0.63;;;;;;;;;;1024405;28;20030;-73
2023/05/01 00:44:35;;;;;;;5.32;1.02;;;;;;;;;;1027607;28;20202;-73
2023/05/01 00:45:06;;;;;;;1.42;1.00;;;;;;;;;;1027240;28;20027;-73
2023/05/01 00:45:37;;;;;;;2.00;1.08;;;;;;;;;;1027835;28;20574;-73
2023/05/01 00:46:08;;;;;;;0.80;0.80;;;;;;;;;;1026315;28;20069;-73
2023/05/01 00:46:39;;;;;;;1.42;1.20;;;;;;;;;;1025853;28;20098;-73
2023/05/01 00:47:09;;;;;;;7.07;0.93;;;;;;;;;;1023928;29;20023;-73
2023/05/01 00:47:40;;;;;;;10.18;1.48;;;;;;;;;;1024246;28;20065;-73
2023/05/01 00:48:10;;;;;;;4.72;1.38;;;;;;;;;;1028163;28;20031;-73
2023/05/01 00:48:41;;;;;;;1.08;0.80;;;;;;;;;;1028297;28;20058;-73
2023/05/01 00:49:12;;;;;;;0.70;0.70;;;;;;;;;;1029209;28;21554;-73
2023/05/01 00:49:43;;;;;;;0.43;0.43;;;;;;;;;;1026009;28;20041;-73
2023/05/01 00:50:13;;;;;;;1.90;1.08;;;;;;;;;;1026682;28;20408;-73
2023/05/01 00:50:44;;;;;;;1.38;0.60;;;;;;;;;;1024299;28;20538;-73
2023/05/01 00:51:15;;;;;;;1.13;0.73;;;;;;;;;;1025832;28;20392;-73
2023/05/01 00:51:48;;;;;;;0.22;0.22;;;;;;;;;;1028203;28;20474;-73
2023/05/01 00:52:18;;;;;;;0.47;0.38;;;;;;;;;;1026925;28;20014;-73
2023/05/01 00:52:49;;;;;;;1.73;0.75;;;;;;;;;;1027852;28;20113;-73
2023/05/01 00:53:20;;;;;;;4.57;1.63;;;;;;;;;;1027956;28;20027;-73
2023/05/01 00:53:50;;;;;;;0.57;0.50;;;;;;;;;;1027775;28;20027;-73
2023/05/01 00:54:24;;;;;;;0.63;0.63;;;;;;;;;;1029082;28;20049;-73
2023/05/01 00:54:54;;;;;;;0.52;0.45;;;;;;;;;;1028180;28;20031;-73
2023/05/01 00:55:25;;;;;;;4.30;0.80;;;;;;;;;;1028197;28;20035;-73
2023/05/01 00:55:57;;;;;;;2.17;1.10;;;;;;;;;;1028121;28;20019;-73
2023/05/01 00:56:30;;;;;;;0.22;0.22;;;;;;;;;;1028018;28;20027;-74
2023/05/01 00:57:01;;;;;;;4.18;2.38;;;;;;;;;;1027813;28;20046;-74
2023/05/01 00:57:32;;;;;;;1.17;0.60;;;;;;;;;;1027929;28;20030;-73
2023/05/01 00:58:03;;;;;;;2.63;0.82;;;;;;;;;;1027755;28;20022;-73
2023/05/01 00:58:34;;;;;;;2.85;0.82;;;;;;;;;;1028057;28;20015;-73
2023/05/01 00:59:04;;;;;;;0.57;0.57;;;;;;;;;;1028505;28;20026;-73
2023/05/01 00:59:35;;;;;;;2.10;0.75;;;;;;;;;;1028238;28;20023;-73
2023/05/01 01:00:06;;;;;;;0.63;0.57;;;;;;;;;;1028064;28;20030;-73
2023/05/01 01:00:37;;;;;;;2.40;0.82;;;;;;;;;;1028050;28;20030;-73
2023/05/01 01:01:08;;;;;;;0.10;0.10;;;;;;;;;;1027964;28;20026;-73
2023/05/01 01:01:40;;;;;;;6.90;1.67;;;;;;;;;;1028216;28;20036;-73
2023/05/01 01:02:13;;;;;;;0.68;0.68;;;;;;;;;;1027836;28;20405;-74
2023/05/01 01:02:45;;;;;;;1.00;0.88;;;;;;;;;;1026973;28;20030;-74
2023/05/01 01:03:15;;;;;;;4.03;1.95;;;;;;;;;;1027110;28;20459;-74
2023/05/01 01:03:46;;;;;;;2.80;0.77;;;;;;;;;;1023790;29;20153;-73
2023/05/01 01:04:17;;;;;;;0.98;0.65;;;;;;;;;;1023826;29;20102;-73
2023/05/01 01:04:48;;;;;;;2.00;0.77;;;;;;;;;;1023925;29;20035;-73
2023/05/01 01:05:20;;;;;;;5.38;1.15;;;;;;;;;;1024255;28;20027;-73
2023/05/01 01:05:55;;;;;;;2.15;0.70;;;;;;;;;;1027592;28;20526;-73
2023/05/01 01:06:33;;;;;;;1.98;1.75;;;;;;;;;;1028319;28;20035;-74
2023/05/01 01:07:10;;;;;;;7.97;0.93;;;;;;;;;;1023689;29;20444;-73
2023/05/01 01:07:46;;;;;;;1.23;1.10;;;;;;;;;;1023668;29;20034;-74
2023/05/01 01:08:27;;;;;;;2.13;0.70;;;;;;;;;;1024765;28;20392;-74
2023/05/01 01:09:10;;;;;;;1.27;0.22;;;;;;;;;;1026698;28;20061;-73
2023/05/01 01:09:45;;;;;;;1.48;0.75;;;;;;;;;;1027178;28;20479;-73
2023/05/01 01:10:26;;;;;;;6.05;1.08;;;;;;;;;;1027230;28;20114;-73
2023/05/01 01:11:07;;;;;;;0.28;0.28;;;;;;;;;;1027291;28;20031;-73
2023/05/01 01:11:41;;;;;;;1.02;0.93;;;;;;;;;;1029000;28;20019;-73
2023/05/01 01:12:33;;;;;;;0.82;0.60;;;;;;;;;;1027503;28;20469;-73
2023/05/01 01:13:10;;;;;;;0.93;0.43;;;;;;;;;;1023198;28;20507;-74
2023/05/01 01:13:41;;;;;;;0.80;0.63;;;;;;;;;;1023979;29;20482;-73
2023/05/01 01:14:17;;;;;;;0.95;0.85;;;;;;;;;;1023614;28;20069;-73
2023/05/01 01:14:52;;;;;;;0.95;0.95;;;;;;;;;;1024855;28;20491;-73
2023/05/01 01:15:29;;;;;;;1.10;0.32;;;;;;;;;;1027408;28;20057;-73
2023/05/01 01:16:05;;;;;;;5.10;1.00;;;;;;;;;;1027605;28;20046;-73
2023/05/01 01:16:53;;;;;;;0.50;0.32;;;;;;;;;;1027379;28;20022;-73
2023/05/01 01:17:33;;;;;;;4.25;1.13;;;;;;;;;;1028050;28;20030;-73
2023/05/01 01:18:17;;;;;;;0.38;0.22;;;;;;;;;;1027511;28;20549;-73
2023/05/01 01:18:49;;;;;;;1.33;1.02;;;;;;;;;;1023499;29;20046;-73
2023/05/01 01:19:38;;;;;;;0.75;0.63;;;;;;;;;;1023895;29;20033;-73
2023/05/01 01:20:17;;;;;;;0.88;0.55;;;;;;;;;;1023431;29;20037;-74
2023/05/01 01:20:51;;;;;;;4.72;1.48;;;;;;;;;;1026371;28;20459;-74
2023/05/01 01:21:25;;;;;;;6.28;0.85;;;;;;;;;;1027937;28;20081;-74
2023/05/01 01:22:01;;;;;;;0.35;0.30;;;;;;;;;;1027177;28;20029;-74
2023/05/01 01:22:34;;;;;;;0.40;0.40;;;;;;;;;;1028152;28;20027;-74
2023/05/01 01:23:23;;;;;;;7.32;1.38;;;;;;;;;;1027951;28;20097;-73
2023/05/01 01:24:12;;;;;;;0.73;0.73;;;;;;;;;;1028017;28;20077;-73
2023/05/01 01:24:56;;;;;;;0.80;0.77;;;;;;;;;;1028032;28;20089;-73
2023/05/01 01:25:26;;;;;;;0.85;0.45;;;;;;;;;;1027674;28;20027;-73
2023/05/01 01:26:16;;;;;;;1.38;0.70;;;;;;;;;;1023487;28;20510;-73
2023/05/01 01:27:01;;;;;;;0.20;0.20;;;;;;;;;;1022268;28;20864;-73
2023/05/01 01:27:55;;;;;;;0.52;0.28;;;;;;;;;;1024205;28;20031;-73
2023/05/01 01:28:44;;;;;;;0.40;0.40;;;;;;;;;;1020057;28;20476;-73
2023/05/01 01:29:33;;;;;;;2.00;0.50;;;;;;;;;;1027885;28;20122;-73
2023/05/01 01:30:22;;;;;;;0.25;0.22;;;;;;;;;;1028091;28;20019;-73
2023/05/01 01:31:04;;;;;;;0.55;0.50;;;;;;;;;;1027634;28;20515;-73
2023/05/01 01:31:46;;;;;;;0.55;0.55;;;;;;;;;;1028177;28;20027;-73
2023/05/01 01:32:23;;;;;;;12.15;3.90;;;;;;;;;;1027398;28;20386;-74
2023/05/01 01:33:21;;;;;;;2.17;0.47;;;;;;;;;;1026992;28;20119;-74
2023/05/01 01:33:53;;;;;;;0.75;0.50;;;;;;;;;;1027907;28;20023;-73
2023/05/01 01:34:43;;;;;;;0.82;0.82;;;;;;;;;;1028085;28;20029;-73
2023/05/01 01:35:23;;;;;;;0.45;0.38;;;;;;;;;;1028103;28;20479;-73
2023/05/01 01:36:01;;;;;;;2.85;1.45;;;;;;;;;;1027527;28;20035;-74
2023/05/01 01:36:55;;;;;;;11.27;0.82;;;;;;;;;;1027943;28;20438;-74
2023/05/01 01:37:32;;;;;;;1.90;1.10;;;;;;;;;;1027337;28;20188;-74
2023/05/01 01:38:05;;;;;;;0.35;0.35;;;;;;;;;;1028262;28;20543;-73
2023/05/01 01:38:44;;;;;;;0.55;0.40;;;;;;;;;;1028963;28;20064;-75
2023/05/01 01:39:22;;;;;;;0.60;0.60;;;;;;;;;;1027417;28;20041;-74
2023/05/01 01:39:58;;;;;;;0.75;0.52;;;;;;;;;;1027030;28;20023;-74
2023/05/01 01:40:43;;;;;;;0.63;0.50;;;;;;;;;;1028001;28;20077;-73
2023/05/01 01:41:18;;;;;;;0.50;0.50;;;;;;;;;;1028102;28;20035;-73
2023/05/01 01:41:51;;;;;;;0.30;0.30;;;;;;;;;;1028744;28;20092;-74
2023/05/01 01:42:35;;;;;;;0.68;0.50;;;;;;;;;;1028039;28;20454;-74
2023/05/01 01:43:06;;;;;;;1.58;1.25;;;;;;;;;;1027878;28;20019;-74
2023/05/01 01:43:38;;;;;;;7.63;1.60;;;;;;;;;;1028048;28;20117;-74
2023/05/01 01:44:19;;;;;;;3.20;1.38;;;;;;;;;;1027427;28;20066;-74
2023/05/01 01:44:51;;;;;;;1.10;0.85;;;;;;;;;;1026864;28;20030;-74
2023/05/01 01:45:24;;;;;;;0.55;0.47;;;;;;;;;;1026991;28;20024;-74
2023/05/01 01:45:58;;;;;;;1.30;1.17;;;;;;;;;;1026429;28;20023;-74
2023/05/01 01:46:31;;;;;;;2.67;0.90;;;;;;;;;;1027980;28;20544;-74
2023/05/01 01:47:05;;;;;;;0.47;0.40;;;;;;;;;;1027120;28;20467;-74
2023/05/01 01:47:38;;;;;;;3.17;1.52;;;;;;;;;;1027194;28;20041;-73
2023/05/01 01:48:13;;;;;;;1.63;1.50;;;;;;;;;;1026981;28;20487;-74
2023/05/01 01:48:45;;;;;;;2.28;1.13;;;;;;;;;;1026791;28;20387;-74
2023/05/01 01:49:19;;;;;;;3.63;2.00;;;;;;;;;;1027835;28;20514;-74
2023/05/01 01:49:51;;;;;;;2.92;1.33;;;;;;;;;;1026825;28;20022;-74
2023/05/01 01:50:24;;;;;;;6.63;1.38;;;;;;;;;;1026904;28;20029;-73
2023/05/01 01:50:57;;;;;;;3.67;1.33;;;;;;;;;;1027375;28;20489;-73
2023/05/01 01:51:28;;;;;;;2.40;0.70;;;;;;;;;;1026729;28;20034;-74
2023/05/01 01:52:01;;;;;;;13.85;1.98;;;;;;;;;;1027361;28;20018;-74
2023/05/01 01:52:32;;;;;;;1.08;0.73;;;;;;;;;;1027957;28;20061;-74
2023/05/01 01:53:03;;;;;;;2.88;0.55;;;;;;;;;;1027885;28;20023;-74
2023/05/01 01:53:36;;;;;;;9.55;1.35;;;;;;;;;;1028104;28;20446;-74
2023/05/01 01:54:07;;;;;;;2.95;1.77;;;;;;;;;;1026807;28;20037;-74
2023/05/01 01:54:39;;;;;;;1.13;0.80;;;;;;;;;;1028047;28;20133;-74
2023/05/01 01:55:11;;;;;;;0.85;0.43;;;;;;;;;;1023540;29;20057;-73
2023/05/01 01:55:42;;;;;;;7.72;1.02;;;;;;;;;;1023588;29;20133;-73
2023/05/01 01:56:13;;;;;;;0.68;0.65;;;;;;;;;;1023655;28;20023;-74
2023/05/01 01:56:45;;;;;;;10.52;0.85;;;;;;;;;;1025054;28;20026;-73
2023/05/01 01:57:17;;;;;;;1.52;0.75;;;;;;;;;;1027884;28;20031;-74
2023/05/01 01:57:49;;;;;;;2.28;0.65;;;;;;;;;;1027196;28;20052;-73
2023/05/01 01:58:24;;;;;;;0.85;0.63;;;;;;;;;;1027578;28;20489;-74
2023/05/01 01:58:56;;;;;;;3.58;1.55;;;;;;;;;;1025780;28;20030;-74
2023/05/01 01:59:27;;;;;;;3.92;1.05;;;;;;;;;;1025959;28;20655;-73
2023/05/01 01:59:58;;;;;;;1.15;0.88;;;;;;;;;;1025694;28;20490;-74
2023/05/01 02:00:28;;;;;;;0.85;0.80;;;;;;;;;;1025551;28;20057;-73
2023/05/01 02:00:59;;;;;;;0.63;0.32;;;;;;;;;;1027881;28;20126;-73
2023/05/01 02:01:30;;;;;;;2.35;1.35;;;;;;;;;;1028020;28;20077;-74
2023/05/01 02:02:01;;;;;;;2.47;0.70;;;;;;;;;;1027712;28;20023;-73
2023/05/01 02:02:32;;;;;;;5.60;1.30;;;;;;;;;;1027984;28;20434;-74
2023/05/01 02:03:02;;;;;;;1.58;1.20;;;;;;;;;;1027715;28;20072;-74
2023/05/01 02:03:33;;;;;;;1.65;0.82;;;;;;;;;;1027536;28;20049;-74
2023/05/01 02:04:04;;;;;;;2.47;1.38;;;;;;;;;;1027803;28;20125;-74
2023/05/01 02:04:35;;;;;;;2.55;1.50;;;;;;;;;;1027955;28;20580;-74
2023/05/01 02:05:12;;;;;;;1.88;1.17;;;;;;;;;;1027945;28;20080;-74
2023/05/01 02:05:44;;;;;;;2.65;0.65;;;;;;;;;;1027416;28;20031;-74
2023/05/01 02:06:16;;;;;;;4.03;1.25;;;;;;;;;;1025773;28;20507;-74
2023/05/01 02:06:48;;;;;;;4.88;2.08;;;;;;;;;;1025529;28;20523;-74
2023/05/01 02:07:19;;;;;;;1.00;0.90;;;;;;;;;;1022562;29;20061;-74
2023/05/01 02:07:50;;;;;;;1.15;0.68;;;;;;;;;;1023462;28;20031;-74
2023/05/01 02:08:22;;;;;;;0.70;0.70;;;;;;;;;;1025862;28;20113;-73
2023/05/01 02:08:53;;;;;;;5.70;1.95;;;;;;;;;;1025263;28;20027;-75
2023/05/01 02:09:23;;;;;;;3.25;1.27;;;;;;;;;;1028102;28;20029;-74
2023/05/01 02:09:55;;;;;;;5.45;1.85;;;;;;;;;;1027158;28;20037;-73
2023/05/01 02:10:26;;;;;;;2.13;0.85;;;;;;;;;;1027716;28;20023;-74
2023/05/01 02:10:58;;;;;;;8.55;2.17;;;;;;;;;;1027843;28;20023;-75
2023/05/01 02:11:29;;;;;;;1.35;1.05;;;;;;;;;;1023741;28;20019;-74
2023/05/01 02:12:01;;;;;;;8.02;0.85;;;;;;;;;;1022566;29;20031;-74
2023/05/01 02:12:32;;;;;;;2.25;1.30;;;;;;;;;;1023580;29;20372;-75
2023/05/01 02:13:03;;;;;;;3.20;1.38;;;;;;;;;;1024029;28;20082;-75
2023/05/01 02:13:35;;;;;;;3.65;0.43;;;;;;;;;;1027687;28;20026;-74
2023/05/01 02:14:07;;;;;;;0.98;0.88;;;;;;;;;;1026591;28;20034;-74
2023/05/01 02:14:38;;;;;;;1.88;0.70;;;;;;;;;;1027986;28;20505;-74
2023/05/01 02:15:09;;;;;;;0.40;0.40;;;;;;;;;;1028200;28;20505;-73
2023/05/01 02:15:40;;;;;;;7.30;1.23;;;;;;;;;;1026794;28;20486;-74
2023/05/01 02:16:12;;;;;;;10.70;1.52;;;;;;;;;;1027187;28;20015;-73
2023/05/01 02:16:42;;;;;;;3.30;1.85;;;;;;;;;;1027596;28;20507;-74
2023/05/01 02:17:14;;;;;;;1.58;1.15;;;;;;;;;;1027676;28;20023;-74
2023/05/01 02:17:44;;;;;;;5.40;0.80;;;;;;;;;;1027797;28;20027;-75
2023/05/01 02:18:15;;;;;;;0.38;0.30;;;;;;;;;;1027876;28;20498;-74
2023/05/01 02:18:46;;;;;;;0.47;0.40;;;;;;;;;;1027810;28;20023;-74
2023/05/01 02:19:17;;;;;;;3.15;0.90;;;;;;;;;;1027929;28;20030;-74
2023/05/01 02:19:49;;;;;;;3.17;1.83;;;;;;;;;;1027796;28;20022;-74
2023/05/01 02:20:20;;;;;;;3.20;1.88;;;;;;;;;;1027921;28;20137;-74
2023/05/01 02:20:51;;;;;;;0.98;0.98;;;;;;;;;;1023186;28;20031;-74
2023/05/01 02:21:23;;;;;;;1.70;0.95;;;;;;;;;;1023669;29;20034;-74
2023/05/01 02:21:56;;;;;;;0.95;0.68;;;;;;;;;;1022801;28;20508;-74
2023/05/01 02:22:27;;;;;;;2.00;0.68;;;;;;;;;;1023867;28;20031;-73
2023/05/01 02:22:58;;;;;;;1.63;0.73;;;;;;;;;;1027592;28;20031;-74
2023/05/01 02:23:29;;;;;;;6.05;0.98;;;;;;;;;;1027630;28;20101;-74
2023/05/01 02:24:01;;;;;;;8.07;1.13;;;;;;;;;;1027440;28;20497;-74
2023/05/01 02:24:31;;;;;;;2.88;1.38;;;;;;;;;;1027977;28;20023;-74
2023/05/01 02:25:03;;;;;;;0.68;0.50;;;;;;;;;;1027873;28;20036;-75
2023/05/01 02:25:34;;;;;;;5.43;1.10;;;;;;;;;;1027826;28;20031;-75
2023/05/01 02:26:05;;;;;;;7.53;1.08;;;;;;;;;;1027259;28;20022;-74
2023/05/01 02:26:38;;;;;;;5.88;1.13;;;;;;;;;;1027279;28;20023;-74
2023/05/01 02:27:11;;;;;;;0.90;0.90;;;;;;;;;;1027567;28;20108;-73
2023/05/01 02:27:45;;;;;;;0.95;0.35;;;;;;;;;;1027629;28;20479;-74
2023/05/01 02:28:19;;;;;;;2.25;1.15;;;;;;;;;;1022744;29;20150;-74
2023/05/01 02:28:50;;;;;;;2.20;1.33;;;;;;;;;;1023522;29;20031;-75
2023/05/01 02:29:20;;;;;;;6.55;1.50;;;;;;;;;;1023714;29;20118;-74
2023/05/01 02:29:52;;;;;;;1.48;0.88;;;;;;;;;;1023991;28;20077;-74
2023/05/01 02:30:22;;;;;;;0.60;0.40;;;;;;;;;;1027770;28;20027;-74
2023/05/01 02:30:53;;;;;;;3.60;2.25;;;;;;;;;;1027761;28;20022;-74
2023/05/01 02:31:23;;;;;;;2.53;1.10;;;;;;;;;;1027897;28;20023;-74
2023/05/01 02:31:54;;;;;;;1.38;0.70;;;;;;;;;;1027733;28;20113;-74
2023/05/01 02:32:25;;;;;;;0.40;0.40;;;;;;;;;;1027835;28;20022;-74
2023/05/01 02:32:56;;;;;;;2.70;1.25;;;;;;;;;;1026428;28;20385;-73
2023/05/01 02:33:27;;;;;;;1.38;0.80;;;;;;;;;;1027641;28;20026;-74
2023/05/01 02:33:57;;;;;;;1.08;0.52;;;;;;;;;;1026843;28;20475;-74
2023/05/01 02:34:28;;;;;;;1.48;0.98;;;;;;;;;;1023185;28;20035;-74
2023/05/01 02:34:59;;;;;;;3.33;0.68;;;;;;;;;;1023504;29;20783;-75
2023/05/01 02:35:29;;;;;;;1.75;0.70;;;;;;;;;;1023562;29;20114;-75
2023/05/01 02:36:00;;;;;;;4.55;1.95;;;;;;;;;;1023485;28;20082;-75
2023/05/01 02:36:32;;;;;;;2.30;1.30;;;;;;;;;;1027781;28;20070;-74
2023/05/01 02:37:06;;;;;;;1.75;0.82;;;;;;;;;;1027409;28;20097;-74
2023/05/01 02:37:37;;;;;;;8.18;1.75;;;;;;;;;;1023508;29;20596;-74
2023/05/01 02:38:07;;;;;;;1.55;0.88;;;;;;;;;;1023206;28;20030;-75
2023/05/01 02:38:38;;;;;;;4.82;1.10;;;;;;;;;;1022113;29;20387;-75
2023/05/01 02:39:08;;;;;;;1.48;1.27;;;;;;;;;;1023504;28;20034;-74
2023/05/01 02:39:39;;;;;;;1.00;0.70;;;;;;;;;;1027625;28;20074;-74
2023/05/01 02:40:14;;;;;;;3.38;1.88;;;;;;;;;;1026537;28;20022;-74
2023/05/01 02:40:46;;;;;;;2.72;0.70;;;;;;;;;;1027945;28;20046;-74
2023/05/01 02:41:20;;;;;;;3.38;1.45;;;;;;;;;;1026897;28;20623;-74
2023/05/01 02:41:52;;;;;;;0.98;0.73;;;;;;;;;;1028264;28;20035;-74
2023/05/01 02:42:23;;;;;;;2.53;1.10;;;;;;;;;;1027331;28;20039;-74
2023/05/01 02:42:53;;;;;;;5.50;1.80;;;;;;;;;;1027476;28;20494;-74
2023/05/01 02:43:25;;;;;;;1.27;0.77;;;;;;;;;;1027633;28;20042;-75
2023/05/01 02:43:59;;;;;;;7.10;1.25;;;;;;;;;;1026673;28;20026;-74
2023/05/01 02:44:36;;;;;;;5.35;1.33;;;;;;;;;;1026790;28;20019;-74
2023/05/01 02:45:07;;;;;;;4.90;1.15;;;;;;;;;;1027042;28;20134;-75
2023/05/01 02:45:39;;;;;;;1.15;0.77;;;;;;;;;;1027278;28;20494;-74
2023/05/01 02:46:11;;;;;;;2.72;0.68;;;;;;;;;;1022403;28;20063;-75
2023/05/01 02:46:44;;;;;;;12.95;1.40;;;;;;;;;;1025278;28;20034;-74
2023/05/01 02:47:16;;;;;;;4.80;1.63;;;;;;;;;;1025238;28;20023;-74
2023/05/01 02:47:49;;;;;;;2.83;0.95;;;;;;;;;;1024871;28;20318;-73
2023/05/01 02:48:22;;;;;;;1.90;0.93;;;;;;;;;;1023536;29;20530;-74
2023/05/01 02:48:53;;;;;;;1.00;0.75;;;;;;;;;;1024371;28;20094;-74
2023/05/01 02:49:24;;;;;;;1.40;0.75;;;;;;;;;;1027858;28;20022;-74
2023/05/01 02:49:56;;;;;;;0.75;0.50;;;;;;;;;;1025544;28;20023;-74
2023/05/01 02:50:26;;;;;;;7.47;1.55;;;;;;;;;;1025681;28;20150;-74
2023/05/01 02:50:57;;;;;;;3.58;1.50;;;;;;;;;;1025697;28;20195;-74
2023/05/01 02:51:28;;;;;;;0.88;0.70;;;;;;;;;;1025557;28;20027;-74
2023/05/01 02:51:59;;;;;;;0.65;0.57;;;;;;;;;;1027010;28;20019;-74
2023/05/01 02:52:30;;;;;;;1.67;0.85;;;;;;;;;;1027625;28;20031;-76
2023/05/01 02:53:01;;;;;;;2.22;1.00;;;;;;;;;;1027755;28;20022;-74
2023/05/01 02:53:32;;;;;;;0.63;0.52;;;;;;;;;;1027747;28;20037;-75
2023/05/01 02:54:03;;;;;;;4.28;1.15;;;;;;;;;;1027525;28;20384;-73
2023/05/01 02:54:33;;;;;;;3.33;1.02;;;;;;;;;;1023438;29;20150;-74
2023/05/01 02:55:04;;;;;;;0.63;0.60;;;;;;;;;;1022534;29;20486;-74
2023/05/01 02:55:35;;;;;;;1.33;0.70;;;;;;;;;;1023332;29;20031;-74
2023/05/01 02:56:06;;;;;;;1.90;1.08;;;;;;;;;;1023447;28;20022;-74
2023/05/01 02:56:37;;;;;;;0.68;0.45;;;;;;;;;;1028356;28;20121;-74
2023/05/01 02:57:09;;;;;;;1.08;0.98;;;;;;;;;;1027692;28;20027;-74
2023/05/01 02:57:40;;;;;;;0.85;0.80;;;;;;;;;;1027665;28;20022;-74
2023/05/01 02:58:14;;;;;;;8.05;1.80;;;;;;;;;;1027554;28;20494;-74
2023/05/01 02:58:44;;;;;;;11.82;2.20;;;;;;;;;;1027643;28;20022;-75
2023/05/01 02:59:15;;;;;;;0.43;0.28;;;;;;;;;;1027852;28;20586;-74
2023/05/01 02:59:45;;;;;;;2.58;1.00;;;;;;;;;;1027631;28;20085;-74
2023/05/01 03:00:16;;;;;;;1.17;0.50;;;;;;;;;;1027629;28;20030;-74
2023/05/01 03:00:49;;;;;;;4.05;1.20;;;;;;;;;;1024138;28;20023;-74
2023/05/01 03:01:20;;;;;;;1.77;1.05;;;;;;;;;;1022750;29;20023;-74
2023/05/01 03:01:50;;;;;;;0.90;0.55;;;;;;;;;;1023258;29;20439;-74
2023/05/01 03:02:21;;;;;;;2.60;0.90;;;;;;;;;;1023806;28;20035;-74
2023/05/01 03:02:52;;;;;;;1.85;0.70;;;;;;;;;;1027517;28;20027;-75
2023/05/01 03:03:22;;;;;;;1.35;0.50;;;;;;;;;;1027584;28;20027;-73
2023/05/01 03:03:53;;;;;;;2.35;0.98;;;;;;;;;;1026825;28;20031;-73
2023/05/01 03:04:23;;;;;;;4.32;0.98;;;;;;;;;;1027257;28;20037;-73
2023/05/01 03:04:53;;;;;;;2.33;0.88;;;;;;;;;;1027647;28;20435;-73
2023/05/01 03:05:24;;;;;;;4.07;0.75;;;;;;;;;;1027727;28;20049;-73
2023/05/01 03:05:55;;;;;;;2.53;1.30;;;;;;;;;;1027537;28;20027;-74
2023/05/01 03:06:27;;;;;;;1.23;0.57;;;;;;;;;;1023278;29;20031;-73
2023/05/01 03:06:58;;;;;;;4.38;0.55;;;;;;;;;;1023440;29;20027;-74
2023/05/01 03:07:33;;;;;;;3.58;1.75;;;;;;;;;;1023431;29;20467;-73
2023/05/01 03:08:04;;;;;;;2.13;0.88;;;;;;;;;;1024394;28;20110;-74
2023/05/01 03:08:35;;;;;;;3.30;0.55;;;;;;;;;;1027684;28;20030;-73
2023/05/01 03:09:06;;;;;;;5.95;1.08;;;;;;;;;;1027133;28;20101;-74
2023/05/01 03:09:37;;;;;;;0.73;0.52;;;;;;;;;;1026699;28;20026;-73
2023/05/01 03:10:08;;;;;;;5.05;0.93;;;;;;;;;;1026438;28;20031;-73
2023/05/01 03:10:41;;;;;;;0.70;0.57;;;;;;;;;;1025308;28;20411;-74
2023/05/01 03:11:12;;;;;;;0.93;0.60;;;;;;;;;;1025774;28;20026;-74
2023/05/01 03:11:42;;;;;;;3.38;0.77;;;;;;;;;;1024991;28;20046;-75
2023/05/01 03:12:13;;;;;;;0.93;0.75;;;;;;;;;;1024703;28;20026;-75
2023/05/01 03:12:43;;;;;;;2.55;1.13;;;;;;;;;;1026991;28;20077;-74
2023/05/01 03:13:14;;;;;;;0.82;0.45;;;;;;;;;;1027226;28;20035;-73
2023/05/01 03:13:46;;;;;;;3.45;0.90;;;;;;;;;;1025949;28;20069;-75
2023/05/01 03:14:19;;;;;;;6.47;1.30;;;;;;;;;;1026150;28;20051;-73
2023/05/01 03:14:50;;;;;;;0.60;0.60;;;;;;;;;;1024516;28;20490;-73
2023/05/01 03:15:21;;;;;;;7.63;2.28;;;;;;;;;;1026086;28;20018;-73
2023/05/01 03:15:51;;;;;;;4.88;1.73;;;;;;;;;;1023833;28;20027;-74
2023/05/01 03:16:22;;;;;;;5.22;0.80;;;;;;;;;;1026111;28;20050;-74